Time;durP1;ratioP1;P1;durP2;ratioP2;P2;SDS_P1;SDS_P2;PMS_P1;PMS_P2;Temp;Humidity;BMP_temperature;BMP_pressure;BME280_temperature;BME280_humidity;BME280_pressure;Samples;Min_cycle;Max_cycle;Signal;HPM_P1;HPM_P2
2022/05/17 00:00:23;;;;;;;;;;;;;;;;;;5056783;28;20248;-79
2022/05/17 00:02:48;;;;;;;;;;;;;;;;;;5057082;28;20326;-80
2022/05/17 00:05:14;;;;;;;;;;;;;;;;;;5040445;28;19916;-80
2022/05/17 00:07:39;;;;;;;;;;;;;;;;;;5075338;28;19919;-79
2022/05/17 00:10:05;;;;;;;;;;;;;;;;;;5076773;28;19916;-80
2022/05/17 00:12:30;;;;;;;;;;;;;;;;;;5056840;28;19997;-80
2022/05/17 00:14:56;;;;;;;;;;;;;;;;;;5074683;28;20431;-80
2022/05/17 00:17:21;;;;;;;;;;;;;;;;;;5056510;28;19913;-80
2022/05/17 00:19:46;;;;;;;;;;;;;;;;;;5056796;28;19912;-80
2022/05/17 00:22:12;;;;;;;;;;;;;;;;;;5056802;28;19921;-80
2022/05/17 00:24:37;;;;;;;;;;;;;;;;;;5073692;28;19912;-80
2022/05/17 00:27:04;;;;;;;;;;;;;;;;;;5057035;28;19947;-80
2022/05/17 00:29:29;;;;;;;;;;;;;;;;;;5084941;28;20352;-80
2022/05/17 00:31:55;;;;;;;;;;;;;;;;;;5056580;28;19950;-80
2022/05/17 00:34:22;;;;;;;;;;;;;;;;;;5074328;28;20353;-79
2022/05/17 00:36:47;;;;;;;;;;;;;;;;;;5056587;28;20367;-80
2022/05/17 00:39:12;;;;;;;;;;;;;;;;;;5056602;28;19913;-79
2022/05/17 00:41:38;;;;;;;;;;;;;;;;;;5073501;28;19912;-80
2022/05/17 00:47:08;;;;;;;;;;;;;;;;;;5059361;28;19977;-80
2022/05/17 00:49:39;;;;;;;;;;;;;;;;;;5067527;28;19916;-80
2022/05/17 00:52:06;;;;;;;;;;;;;;;;;;5074904;28;20374;-80
2022/05/17 00:54:31;;;;;;;;;;;;;;;;;;5040090;28;20029;-80
2022/05/17 00:57:17;;;;;;;;;;;;;;;;;;5074309;28;20020;-80
2022/05/17 00:59:42;;;;;;;;;;;;;;;;;;5032882;28;20317;-80
2022/05/17 01:02:08;;;;;;;;;;;;;;;;;;5056259;28;19923;-80
2022/05/17 01:04:33;;;;;;;;;;;;;;;;;;5056429;28;19912;-79
2022/05/17 01:07:00;;;;;;;;;;;;;;;;;;5083616;28;19912;-80
2022/05/17 01:09:26;;;;;;;;;;;;;;;;;;5057041;28;19913;-80
2022/05/17 01:11:51;;;;;;;;;;;;;;;;;;5039809;28;19977;-80
2022/05/17 01:17:14;;;;;;;;;;;;;;;;;;5040501;28;19985;-80
2022/05/17 01:19:40;;;;;;;;;;;;;;;;;;5056285;28;20345;-80
2022/05/17 01:22:06;;;;;;;;;;;;;;;;;;5056260;28;19985;-79
2022/05/17 01:24:31;;;;;;;;;;;;;;;;;;5073370;28;19928;-80
2022/05/17 01:27:15;;;;;;;;;;;;;;;;;;5046680;28;19959;-80
2022/05/17 01:29:42;;;;;;;;;;;;;;;;;;5075381;28;19916;-80
2022/05/17 01:32:08;;;;;;;;;;;;;;;;;;5039752;28;19912;-80
2022/05/17 01:34:33;;;;;;;;;;;;;;;;;;5073893;28;19912;-80
2022/05/17 01:36:59;;;;;;;;;;;;;;;;;;5073925;28;19912;-80
2022/05/17 01:39:24;;;;;;;;;;;;;;;;;;5073951;28;19939;-80
2022/05/17 01:41:49;;;;;;;;;;;;;;;;;;5056099;28;19920;-79
2022/05/17 01:44:15;;;;;;;;;;;;;;;;;;5055879;28;20005;-80
2022/05/17 01:46:40;;;;;;;;;;;;;;;;;;5045178;28;19900;-80
2022/05/17 01:49:05;;;;;;;;;;;;;;;;;;5081599;28;20333;-81
2022/05/17 01:51:31;;;;;;;;;;;;;;;;;;5077351;28;19917;-80
2022/05/17 01:53:56;;;;;;;;;;;;;;;;;;5042884;28;20257;-80
2022/05/17 01:56:21;;;;;;;;;;;;;;;;;;5042658;28;19966;-81
2022/05/17 01:58:47;;;;;;;;;;;;;;;;;;5077339;28;20385;-80
2022/05/17 02:01:12;;;;;;;;;;;;;;;;;;5077335;28;19916;-80
2022/05/17 02:03:37;;;;;;;;;;;;;;;;;;5043150;28;19916;-80
2022/05/17 02:06:03;;;;;;;;;;;;;;;;;;5076107;28;19912;-79
2022/05/17 02:08:29;;;;;;;;;;;;;;;;;;5086026;28;19916;-80
2022/05/17 02:10:55;;;;;;;;;;;;;;;;;;5076514;28;19919;-80
2022/05/17 02:13:20;;;;;;;;;;;;;;;;;;5058828;28;19912;-80
2022/05/17 02:15:45;;;;;;;;;;;;;;;;;;5076981;28;20350;-80
2022/05/17 02:18:11;;;;;;;;;;;;;;;;;;5059002;28;20364;-80
2022/05/17 02:20:37;;;;;;;;;;;;;;;;;;5076848;28;20013;-80
2022/05/17 02:23:02;;;;;;;;;;;;;;;;;;5058820;28;19919;-79
2022/05/17 02:25:27;;;;;;;;;;;;;;;;;;5058854;28;20311;-79
2022/05/17 02:27:53;;;;;;;;;;;;;;;;;;5084879;28;19927;-79
2022/05/17 02:30:19;;;;;;;;;;;;;;;;;;5059188;28;19916;-80
2022/05/17 02:32:44;;;;;;;;;;;;;;;;;;5058788;28;19913;-80
2022/05/17 02:35:10;;;;;;;;;;;;;;;;;;5076557;28;19920;-80
2022/05/17 02:37:35;;;;;;;;;;;;;;;;;;5058625;28;19912;-80
2022/05/17 02:40:00;;;;;;;;;;;;;;;;;;5059175;28;19920;-80
2022/05/17 02:42:26;;;;;;;;;;;;;;;;;;5076157;28;19912;-80
2022/05/17 02:44:51;;;;;;;;;;;;;;;;;;5058458;28;20273;-80
2022/05/17 02:47:16;;;;;;;;;;;;;;;;;;5079272;28;19934;-79
2022/05/17 02:49:44;;;;;;;;;;;;;;;;;;5082745;28;19924;-80
2022/05/17 02:52:10;;;;;;;;;;;;;;;;;;5076227;28;19912;-80
2022/05/17 02:54:35;;;;;;;;;;;;;;;;;;5076184;28;19912;-80
2022/05/17 02:57:00;;;;;;;;;;;;;;;;;;5076022;28;20002;-80
2022/05/17 02:59:26;;;;;;;;;;;;;;;;;;5076583;28;20011;-80
2022/05/17 03:01:52;;;;;;;;;;;;;;;;;;5057717;28;19951;-78
2022/05/17 03:04:17;;;;;;;;;;;;;;;;;;5058267;28;20257;-79
2022/05/17 03:06:43;;;;;;;;;;;;;;;;;;5058117;28;19920;-79
2022/05/17 03:09:09;;;;;;;;;;;;;;;;;;5066821;28;20369;-81
2022/05/17 03:11:35;;;;;;;;;;;;;;;;;;5075628;28;19999;-79
2022/05/17 03:14:00;;;;;;;;;;;;;;;;;;5075767;28;19951;-79
2022/05/17 03:16:30;;;;;;;;;;;;;;;;;;5075701;28;20398;-81
2022/05/17 03:18:55;;;;;;;;;;;;;;;;;;5058029;28;20298;-80
2022/05/17 03:21:20;;;;;;;;;;;;;;;;;;5075938;28;19908;-80
2022/05/17 03:23:46;;;;;;;;;;;;;;;;;;5057792;28;19913;-80
2022/05/17 03:26:11;;;;;;;;;;;;;;;;;;5078342;28;19951;-80
2022/05/17 03:28:37;;;;;;;;;;;;;;;;;;5084420;28;19908;-80
2022/05/17 03:31:05;;;;;;;;;;;;;;;;;;5078015;28;20247;-80
2022/05/17 03:33:31;;;;;;;;;;;;;;;;;;5062499;28;19943;-81
2022/05/17 03:35:56;;;;;;;;;;;;;;;;;;5096623;28;19920;-81
2022/05/17 03:38:22;;;;;;;;;;;;;;;;;;5078406;28;19920;-80
2022/05/17 03:40:47;;;;;;;;;;;;;;;;;;5097676;28;19919;-79
2022/05/17 03:43:13;;;;;;;;;;;;;;;;;;5079291;28;19919;-80
2022/05/17 03:45:39;;;;;;;;;;;;;;;;;;5086287;28;19913;-80
2022/05/17 03:48:04;;;;;;;;;;;;;;;;;;5046066;28;19903;-80
2022/05/17 03:50:30;;;;;;;;;;;;;;;;;;5077736;28;19901;-80
2022/05/17 03:52:55;;;;;;;;;;;;;;;;;;5078831;28;19916;-80
2022/05/17 03:55:21;;;;;;;;;;;;;;;;;;5057160;28;19913;-80
2022/05/17 03:57:46;;;;;;;;;;;;;;;;;;5057042;28;19912;-80
2022/05/17 04:00:11;;;;;;;;;;;;;;;;;;5074752;28;19928;-81
2022/05/17 04:02:37;;;;;;;;;;;;;;;;;;5075343;28;19954;-80
2022/05/17 04:05:03;;;;;;;;;;;;;;;;;;5057468;28;19915;-80
2022/05/17 04:07:28;;;;;;;;;;;;;;;;;;5074940;28;19912;-81
2022/05/17 04:09:53;;;;;;;;;;;;;;;;;;5086290;28;19939;-81
2022/05/17 04:12:19;;;;;;;;;;;;;;;;;;5074379;28;20315;-80
2022/05/17 04:14:44;;;;;;;;;;;;;;;;;;5040236;28;20007;-80
2022/05/17 04:17:10;;;;;;;;;;;;;;;;;;5056939;28;20250;-81
2022/05/17 04:19:35;;;;;;;;;;;;;;;;;;5074751;28;19919;-81
2022/05/17 04:22:01;;;;;;;;;;;;;;;;;;5074585;28;19920;-80
2022/05/17 04:24:26;;;;;;;;;;;;;;;;;;5040495;28;19912;-82
2022/05/17 04:26:52;;;;;;;;;;;;;;;;;;5057274;28;19913;-79
2022/05/17 04:29:17;;;;;;;;;;;;;;;;;;5082469;28;19900;-80
2022/05/17 04:31:43;;;;;;;;;;;;;;;;;;5077109;28;19917;-79
2022/05/17 04:34:09;;;;;;;;;;;;;;;;;;5040338;28;19909;-81
2022/05/17 04:36:34;;;;;;;;;;;;;;;;;;5074284;28;19968;-80
2022/05/17 04:39:00;;;;;;;;;;;;;;;;;;5074348;28;19998;-80
2022/05/17 04:41:25;;;;;;;;;;;;;;;;;;5074623;28;20254;-80
2022/05/17 04:43:51;;;;;;;;;;;;;;;;;;5074250;28;19912;-79
2022/05/17 04:46:19;;;;;;;;;;;;;;;;;;5041217;28;19995;-81
2022/05/17 04:48:45;;;;;;;;;;;;;;;;;;5073811;28;20058;-79
2022/05/17 04:51:11;;;;;;;;;;;;;;;;;;5081629;28;20254;-78
2022/05/17 04:53:37;;;;;;;;;;;;;;;;;;5054671;28;20284;-80
2022/05/17 04:56:03;;;;;;;;;;;;;;;;;;5033212;28;19920;-78
2022/05/17 04:58:30;;;;;;;;;;;;;;;;;;5046884;28;19925;-78
2022/05/17 05:00:56;;;;;;;;;;;;;;;;;;5063014;28;19917;-78
2022/05/17 05:03:22;;;;;;;;;;;;;;;;;;5060828;28;19923;-79
2022/05/17 05:05:47;;;;;;;;;;;;;;;;;;5057060;28;19985;-81
2022/05/17 05:08:13;;;;;;;;;;;;;;;;;;5039538;28;20015;-79
2022/05/17 05:10:38;;;;;;;;;;;;;;;;;;5064102;28;19935;-80
2022/05/17 05:13:04;;;;;;;;;;;;;;;;;;5055103;28;19913;-78
2022/05/17 05:15:31;;;;;;;;;;;;;;;;;;5047400;28;19923;-79
2022/05/17 05:18:06;;;;;;;;;;;;;;;;;;5055302;28;20003;-79
2022/05/17 05:20:31;;;;;;;;;;;;;;;;;;5066957;28;20010;-77
2022/05/17 05:22:56;;;;;;;;;;;;;;;;;;5062721;28;20042;-78
2022/05/17 05:25:22;;;;;;;;;;;;;;;;;;5059542;28;19917;-79
2022/05/17 05:27:47;;;;;;;;;;;;;;;;;;5060185;28;19919;-78
2022/05/17 05:30:13;;;;;;;;;;;;;;;;;;5064484;28;19923;-75
2022/05/17 05:32:39;;;;;;;;;;;;;;;;;;5048356;28;19962;-78
2022/05/17 05:35:04;;;;;;;;;;;;;;;;;;5067230;28;19920;-77
2022/05/17 05:37:30;;;;;;;;;;;;;;;;;;5066629;28;21502;-76
2022/05/17 05:39:55;;;;;;;;;;;;;;;;;;5042137;28;20314;-77
2022/05/17 05:42:20;;;;;;;;;;;;;;;;;;5039824;28;20850;-82
2022/05/17 05:44:47;;;;;;;;;;;;;;;;;;5034892;28;19927;-84
2022/05/17 05:47:25;;;;;;;;;;;;;;;;;;5055611;28;19916;-82
2022/05/17 05:49:51;;;;;;;;;;;;;;;;;;5073092;28;20143;-80
2022/05/17 05:53:07;;;;;;;;;;;;;;;;;;5070233;28;19922;-81
2022/05/17 05:55:34;;;;;;;;;;;;;;;;;;5038053;22;19924;-79
2022/05/17 05:58:04;;;;;;;;;;;;;;;;;;5055341;28;19925;-81
2022/05/17 06:00:29;;;;;;;;;;;;;;;;;;5064312;28;19912;-79
2022/05/17 06:02:55;;;;;;;;;;;;;;;;;;5074866;28;19923;-82
2022/05/17 06:05:21;;;;;;;;;;;;;;;;;;5053880;28;19952;-83
2022/05/17 06:07:46;;;;;;;;;;;;;;;;;;5055891;28;19967;-82
2022/05/17 06:10:12;;;;;;;;;;;;;;;;;;5037192;28;19917;-84
2022/05/17 06:12:38;;;;;;;;;;;;;;;;;;5071533;28;19943;-83
2022/05/17 06:15:03;;;;;;;;;;;;;;;;;;5058036;28;19916;-84
2022/05/17 06:17:29;;;;;;;;;;;;;;;;;;5051752;28;19921;-83
2022/05/17 06:19:57;;;;;;;;;;;;;;;;;;5075698;28;19920;-82
2022/05/17 06:22:23;;;;;;;;;;;;;;;;;;5040216;28;20048;-82
2022/05/17 06:24:48;;;;;;;;;;;;;;;;;;5057711;28;20281;-83
2022/05/17 06:27:13;;;;;;;;;;;;;;;;;;5074734;28;20510;-82
2022/05/17 06:29:39;;;;;;;;;;;;;;;;;;5057453;28;20024;-87
2022/05/17 06:32:10;;;;;;;;;;;;;;;;;;5083852;28;19925;-84
2022/05/17 06:34:35;;;;;;;;;;;;;;;;;;5076423;28;19943;-85
2022/05/17 06:37:01;;;;;;;;;;;;;;;;;;5050364;28;19916;-81
2022/05/17 06:39:26;;;;;;;;;;;;;;;;;;5032148;28;19934;-79
2022/05/17 06:41:53;;;;;;;;;;;;;;;;;;5045066;28;19928;-85
2022/05/17 06:44:19;;;;;;;;;;;;;;;;;;5060971;28;19920;-85
2022/05/17 06:46:44;;;;;;;;;;;;;;;;;;5045861;28;20320;-84
2022/05/17 06:49:19;;;;;;;;;;;;;;;;;;5033251;28;19924;-83
2022/05/17 06:51:44;;;;;;;;;;;;;;;;;;5051144;28;19916;-85
2022/05/17 06:54:10;;;;;;;;;;;;;;;;;;5067999;28;19927;-84
2022/05/17 06:56:36;;;;;;;;;;;;;;;;;;5075399;28;19916;-86
2022/05/17 06:59:02;;;;;;;;;;;;;;;;;;5035798;28;20492;-84
2022/05/17 07:01:28;;;;;;;;;;;;;;;;;;5057395;28;19982;-83
2022/05/17 07:03:54;;;;;;;;;;;;;;;;;;5075878;28;19916;-83
2022/05/17 07:09:15;;;;;;;;;;;;;;;;;;5057987;28;19921;-87
2022/05/17 07:14:43;;;;;;;;;;;;;;;;;;5063637;28;20314;-83
2022/05/17 07:17:12;;;;;;;;;;;;;;;;;;5073541;28;19994;-84
2022/05/17 07:19:37;;;;;;;;;;;;;;;;;;5054521;28;19913;-86
2022/05/17 07:22:22;;;;;;;;;;;;;;;;;;5074021;28;19912;-84
2022/05/17 07:24:50;;;;;;;;;;;;;;;;;;5052130;28;19919;-83
2022/05/17 07:27:15;;;;;;;;;;;;;;;;;;5073974;28;19923;-82
2022/05/17 07:29:42;;;;;;;;;;;;;;;;;;5266089;22;19920;-83
2022/05/17 07:32:12;;;;;;;;;;;;;;;;;;5015088;28;19916;-84
2022/05/17 07:34:37;;;;;;;;;;;;;;;;;;5033824;28;20408;-85
2022/05/17 07:37:03;;;;;;;;;;;;;;;;;;5023296;28;19920;-87
2022/05/17 07:39:29;;;;;;;;;;;;;;;;;;5053353;28;20008;-82
2022/05/17 07:41:58;;;;;;;;;;;;;;;;;;5030945;28;19978;-88
2022/05/17 07:44:23;;;;;;;;;;;;;;;;;;5054292;28;20461;-84
2022/05/17 07:46:48;;;;;;;;;;;;;;;;;;5053976;28;20172;-85
2022/05/17 07:49:15;;;;;;;;;;;;;;;;;;5053235;28;19913;-87
2022/05/17 07:51:40;;;;;;;;;;;;;;;;;;5062762;28;19968;-85
2022/05/17 07:54:06;;;;;;;;;;;;;;;;;;5069692;28;19923;-87
2022/05/17 07:56:32;;;;;;;;;;;;;;;;;;5055277;28;19920;-86
2022/05/17 07:58:57;;;;;;;;;;;;;;;;;;5034837;28;20396;-86
2022/05/17 08:01:22;;;;;;;;;;;;;;;;;;5035629;28;20659;-86
2022/05/17 08:03:48;;;;;;;;;;;;;;;;;;5018689;28;19916;-84
2022/05/17 08:06:13;;;;;;;;;;;;;;;;;;5024836;28;19917;-80
2022/05/17 08:08:38;;;;;;;;;;;;;;;;;;5046316;28;19924;-83
2022/05/17 08:11:28;;;;;;;;;;;;;;;;;;5032923;28;19913;-82
2022/05/17 08:13:53;;;;;;;;;;;;;;;;;;5045554;28;19925;-82
2022/05/17 08:16:19;;;;;;;;;;;;;;;;;;5044226;28;19913;-82
2022/05/17 08:18:44;;;;;;;;;;;;;;;;;;5037142;28;19924;-82
2022/05/17 08:21:10;;;;;;;;;;;;;;;;;;5043215;28;19920;-84
2022/05/17 08:23:35;;;;;;;;;;;;;;;;;;5018844;28;19917;-82
2022/05/17 08:28:49;;;;;;;;;;;;;;;;;;5007462;28;20325;-85
2022/05/17 08:31:15;;;;;;;;;;;;;;;;;;5046103;28;19928;-83
2022/05/17 08:33:40;;;;;;;;;;;;;;;;;;5041207;28;19920;-86
2022/05/17 08:36:07;;;;;;;;;;;;;;;;;;5058540;28;20334;-82
2022/05/17 08:38:37;;;;;;;;;;;;;;;;;;5028345;28;19917;-88
2022/05/17 08:41:21;;;;;;;;;;;;;;;;;;5010934;28;19917;-85
2022/05/17 08:43:50;;;;;;;;;;;;;;;;;;5048554;28;19920;-85
2022/05/17 08:49:20;;;;;;;;;;;;;;;;;;5077345;22;20257;-83
2022/05/17 08:51:48;;;;;;;;;;;;;;;;;;5056784;28;19900;-83
2022/05/17 08:54:15;;;;;;;;;;;;;;;;;;5036680;28;19911;-84
2022/05/17 08:56:54;;;;;;;;;;;;;;;;;;5023806;28;19976;-85
2022/05/17 08:59:20;;;;;;;;;;;;;;;;;;5073248;28;19965;-87
2022/05/17 09:01:46;;;;;;;;;;;;;;;;;;5072546;28;20292;-83
2022/05/17 09:04:15;;;;;;;;;;;;;;;;;;5075818;28;19939;-87
2022/05/17 09:06:59;;;;;;;;;;;;;;;;;;5080042;28;19999;-85
2022/05/17 09:09:24;;;;;;;;;;;;;;;;;;5081374;28;19913;-86
2022/05/17 09:11:53;;;;;;;;;;;;;;;;;;5090500;28;19979;-87
2022/05/17 09:14:20;;;;;;;;;;;;;;;;;;5061846;28;20245;-83
2022/05/17 09:16:47;;;;;;;;;;;;;;;;;;5065058;28;19913;-89
2022/05/17 09:19:13;;;;;;;;;;;;;;;;;;5061100;28;19944;-85
2022/05/17 09:21:40;;;;;;;;;;;;;;;;;;5075879;28;20322;-86
2022/05/17 09:24:07;;;;;;;;;;;;;;;;;;5042490;28;19938;-89
2022/05/17 09:26:32;;;;;;;;;;;;;;;;;;5062411;28;20000;-86
2022/05/17 09:29:04;;;;;;;;;;;;;;;;;;5048567;28;20495;-89
2022/05/17 09:31:31;;;;;;;;;;;;;;;;;;5074020;28;19973;-86
2022/05/17 09:33:57;;;;;;;;;;;;;;;;;;5063240;28;19995;-85
2022/05/17 09:36:24;;;;;;;;;;;;;;;;;;5058384;28;19959;-84
2022/05/17 09:38:58;;;;;;;;;;;;;;;;;;5023381;28;19960;-88
2022/05/17 09:41:29;;;;;;;;;;;;;;;;;;5059374;28;19928;-85
2022/05/17 09:44:01;;;;;;;;;;;;;;;;;;5054339;28;19935;-86
2022/05/17 09:46:28;;;;;;;;;;;;;;;;;;5073722;28;20023;-87
2022/05/17 09:55:09;;;;;;;;;;;;;;;;;;5077479;22;20446;-83
2022/05/17 09:57:34;;;;;;;;;;;;;;;;;;5036896;28;19912;-87
2022/05/17 10:00:08;;;;;;;;;;;;;;;;;;5075190;28;19923;-87
2022/05/17 10:02:57;;;;;;;;;;;;;;;;;;5037292;28;19912;-86
2022/05/17 10:05:26;;;;;;;;;;;;;;;;;;5067391;28;19913;-85
2022/05/17 10:07:56;;;;;;;;;;;;;;;;;;5058308;28;20263;-87
2022/05/17 10:10:21;;;;;;;;;;;;;;;;;;5043056;28;19912;-84
2022/05/17 10:12:47;;;;;;;;;;;;;;;;;;5088586;28;20313;-86
2022/05/17 10:15:12;;;;;;;;;;;;;;;;;;5058414;28;20333;-84
2022/05/17 10:17:49;;;;;;;;;;;;;;;;;;5058271;28;20459;-88
2022/05/17 10:20:26;;;;;;;;;;;;;;;;;;5054561;28;19924;-86
2022/05/17 10:22:54;;;;;;;;;;;;;;;;;;5055830;28;19909;-87
2022/05/17 10:25:26;;;;;;;;;;;;;;;;;;5057032;28;19912;-84
2022/05/17 10:27:58;;;;;;;;;;;;;;;;;;5058218;28;20265;-87
2022/05/17 10:30:47;;;;;;;;;;;;;;;;;;5062026;28;20007;-83
2022/05/17 10:33:21;;;;;;;;;;;;;;;;;;5061435;22;20068;-84
2022/05/17 10:35:47;;;;;;;;;;;;;;;;;;5096258;28;19981;-85
2022/05/17 10:38:14;;;;;;;;;;;;;;;;;;5070327;28;19916;-84
2022/05/17 10:40:43;;;;;;;;;;;;;;;;;;5087583;28;19916;-83
2022/05/17 10:43:16;;;;;;;;;;;;;;;;;;5081473;28;19917;-84
2022/05/17 10:45:41;;;;;;;;;;;;;;;;;;5069310;28;19982;-83
2022/05/17 10:48:25;;;;;;;;;;;;;;;;;;5069449;28;20408;-82
2022/05/17 10:50:56;;;;;;;;;;;;;;;;;;5086826;28;19983;-85
2022/05/17 10:56:08;;;;;;;;;;;;;;;;;;5067440;28;19920;-74
2022/05/17 10:58:52;;;;;;;;;;;;;;;;;;5068701;28;20359;-76
2022/05/17 11:01:26;;;;;;;;;;;;;;;;;;5055312;28;19912;-76
2022/05/17 11:03:57;;;;;;;;;;;;;;;;;;5058825;28;19986;-76
2022/05/17 11:06:27;;;;;;;;;;;;;;;;;;5079325;28;19912;-77
2022/05/17 11:11:52;;;;;;;;;;;;;;;;;;5072205;28;20387;-75
2022/05/17 11:14:36;;;;;;;;;;;;;;;;;;5073237;28;19913;-76
2022/05/17 11:17:09;;;;;;;;;;;;;;;;;;5073158;28;19912;-76
2022/05/17 11:19:41;;;;;;;;;;;;;;;;;;5039919;28;20387;-75
2022/05/17 11:22:08;;;;;;;;;;;;;;;;;;5055902;28;19912;-77
2022/05/17 11:24:53;;;;;;;;;;;;;;;;;;5056572;28;20359;-76
2022/05/17 11:27:24;;;;;;;;;;;;;;;;;;5055071;28;20261;-77
2022/05/17 11:30:04;;;;;;;;;;;;;;;;;;5073393;28;19912;-76
2022/05/17 11:32:30;;;;;;;;;;;;;;;;;;5071964;28;20344;-75
2022/05/17 11:34:59;;;;;;;;;;;;;;;;;;5073107;28;19919;-77
2022/05/17 11:37:47;;;;;;;;;;;;;;;;;;5072490;28;20257;-76
2022/05/17 11:40:17;;;;;;;;;;;;;;;;;;5065147;28;19962;-77
2022/05/17 11:43:46;;;;;;;;;;;;;;;;;;5069808;28;19989;-75
2022/05/17 11:45:51;;;;;;;;;;;;;;;;;;5057549;28;20010;-75
2022/05/17 11:48:35;;;;;;;;;;;;;;;;;;5055756;28;19919;-75
2022/05/17 11:51:01;;;;;;;;;;;;;;;;;;5072809;28;20153;-75
2022/05/17 11:53:27;;;;;;;;;;;;;;;;;;5039388;28;19969;-76
2022/05/17 11:56:11;;;;;;;;;;;;;;;;;;5074579;28;19916;-76
2022/05/17 11:58:36;;;;;;;;;;;;;;;;;;5074511;28;19959;-75
2022/05/17 12:01:01;;;;;;;;;;;;;;;;;;5056715;28;19923;-76
2022/05/17 12:03:46;;;;;;;;;;;;;;;;;;5074812;28;19912;-75
2022/05/17 12:06:27;;;;;;;;;;;;;;;;;;5074411;28;19919;-75
2022/05/17 12:08:52;;;;;;;;;;;;;;;;;;5056665;28;19916;-75
2022/05/17 12:11:23;;;;;;;;;;;;;;;;;;5074179;28;20382;-75
2022/05/17 12:13:55;;;;;;;;;;;;;;;;;;5056979;28;19972;-77
2022/05/17 12:16:24;;;;;;;;;;;;;;;;;;5074243;28;20025;-76
2022/05/17 12:18:55;;;;;;;;;;;;;;;;;;5056809;28;19913;-75
2022/05/17 12:21:26;;;;;;;;;;;;;;;;;;5055708;28;19962;-75
2022/05/17 12:23:58;;;;;;;;;;;;;;;;;;5057089;28;20273;-76
2022/05/17 12:26:33;;;;;;;;;;;;;;;;;;5074600;28;19912;-78
2022/05/17 12:30:52;;;;;;;;;;;;;;;;;;5074750;28;19942;-76
2022/05/17 12:31:43;;;;;;;;;;;;;;;;;;5073644;28;20139;-76
2022/05/17 12:34:08;;;;;;;;;;;;;;;;;;5072319;28;20001;-78
2022/05/17 12:36:35;;;;;;;;;;;;;;;;;;5073304;28;20003;-78
2022/05/17 12:44:41;;;;;;;;;;;;;;;;;;5058551;28;19977;-75
2022/05/17 12:47:08;;;;;;;;;;;;;;;;;;5055520;28;20006;-75
2022/05/17 12:49:34;;;;;;;;;;;;;;;;;;5055794;28;19912;-76
2022/05/17 12:52:00;;;;;;;;;;;;;;;;;;5074539;28;19919;-75
2022/05/17 12:54:26;;;;;;;;;;;;;;;;;;5055991;28;20007;-74
2022/05/17 12:56:51;;;;;;;;;;;;;;;;;;5074286;28;19971;-75
2022/05/17 12:59:27;;;;;;;;;;;;;;;;;;5074162;28;20322;-74
2022/05/17 13:01:54;;;;;;;;;;;;;;;;;;5074529;28;19918;-74
2022/05/17 13:04:24;;;;;;;;;;;;;;;;;;5074172;28;19908;-75
2022/05/17 13:06:50;;;;;;;;;;;;;;;;;;5056694;28;19956;-75
2022/05/17 13:09:15;;;;;;;;;;;;;;;;;;5074440;28;19970;-76
2022/05/17 13:11:41;;;;;;;;;;;;;;;;;;5074547;28;19912;-76
2022/05/17 13:14:10;;;;;;;;;;;;;;;;;;5074434;28;19913;-75
2022/05/17 13:16:40;;;;;;;;;;;;;;;;;;5074228;28;19913;-75
2022/05/17 13:19:07;;;;;;;;;;;;;;;;;;5056194;28;20339;-77
2022/05/17 13:21:33;;;;;;;;;;;;;;;;;;5073977;28;20344;-75
2022/05/17 13:23:59;;;;;;;;;;;;;;;;;;5056235;28;19912;-75
2022/05/17 13:26:25;;;;;;;;;;;;;;;;;;5056341;28;20321;-77
2022/05/17 13:28:51;;;;;;;;;;;;;;;;;;5056637;28;20253;-76
2022/05/17 13:31:20;;;;;;;;;;;;;;;;;;5056658;28;19920;-76
2022/05/17 13:34:12;;;;;;;;;;;;;;;;;;5056659;28;20053;-85
2022/05/17 13:36:44;;;;;;;;;;;;;;;;;;5072653;28;20009;-82
2022/05/17 13:39:36;;;;;;;;;;;;;;;;;;5076012;28;19940;-84
2022/05/17 13:42:01;;;;;;;;;;;;;;;;;;5068980;28;19916;-86
2022/05/17 13:44:31;;;;;;;;;;;;;;;;;;5057616;28;20464;-86
2022/05/17 13:46:56;;;;;;;;;;;;;;;;;;5060537;28;19980;-85
2022/05/17 13:49:35;;;;;;;;;;;;;;;;;;5076727;28;20415;-85
2022/05/17 13:52:20;;;;;;;;;;;;;;;;;;5078072;28;19919;-86
2022/05/17 13:54:46;;;;;;;;;;;;;;;;;;5077448;28;19966;-85
2022/05/17 13:57:14;;;;;;;;;;;;;;;;;;5043641;28;19912;-85
2022/05/17 13:59:40;;;;;;;;;;;;;;;;;;5061324;28;20403;-85
2022/05/17 14:02:12;;;;;;;;;;;;;;;;;;5079175;28;19916;-85
2022/05/17 14:04:39;;;;;;;;;;;;;;;;;;5079449;28;19908;-86
2022/05/17 14:07:19;;;;;;;;;;;;;;;;;;5047660;28;20089;-86
2022/05/17 14:12:29;;;;;;;;;;;;;;;;;;5066926;28;20053;-85
2022/05/17 14:14:59;;;;;;;;;;;;;;;;;;5055458;28;19912;-84
2022/05/17 14:17:28;;;;;;;;;;;;;;;;;;5085203;28;19912;-86
2022/05/17 14:20:06;;;;;;;;;;;;;;;;;;5063742;28;19912;-85
2022/05/17 14:22:32;;;;;;;;;;;;;;;;;;5044441;28;20010;-85
2022/05/17 14:24:57;;;;;;;;;;;;;;;;;;5059735;28;20018;-84
2022/05/17 14:27:23;;;;;;;;;;;;;;;;;;5060093;28;19913;-84
2022/05/17 14:29:54;;;;;;;;;;;;;;;;;;5049005;28;19912;-84
2022/05/17 14:32:20;;;;;;;;;;;;;;;;;;5051164;28;19972;-84
2022/05/17 14:35:01;;;;;;;;;;;;;;;;;;5082451;28;19966;-85
2022/05/17 14:37:47;;;;;;;;;;;;;;;;;;5048982;28;19912;-84
2022/05/17 14:52:08;;;;;;;;;;;;;;;;;;5026606;28;19920;-85
2022/05/17 14:54:35;;;;;;;;;;;;;;;;;;4998471;28;19925;-84
2022/05/17 14:57:05;;;;;;;;;;;;;;;;;;5030364;28;20007;-84
2022/05/17 14:59:31;;;;;;;;;;;;;;;;;;5015784;28;20012;-84
2022/05/17 15:01:56;;;;;;;;;;;;;;;;;;5014557;28;20003;-85
2022/05/17 15:04:22;;;;;;;;;;;;;;;;;;5031568;28;19926;-84
2022/05/17 15:06:53;;;;;;;;;;;;;;;;;;5014572;28;19914;-84
2022/05/17 15:09:20;;;;;;;;;;;;;;;;;;5031142;28;19914;-86
2022/05/17 15:11:45;;;;;;;;;;;;;;;;;;5034598;28;19913;-86
2022/05/17 15:14:11;;;;;;;;;;;;;;;;;;5034511;28;19909;-84
2022/05/17 15:16:36;;;;;;;;;;;;;;;;;;5043119;28;19913;-84
2022/05/17 15:19:02;;;;;;;;;;;;;;;;;;5054133;28;19913;-84
2022/05/17 15:21:28;;;;;;;;;;;;;;;;;;5037763;28;19973;-84
2022/05/17 15:23:54;;;;;;;;;;;;;;;;;;5063448;28;20007;-83
2022/05/17 15:26:19;;;;;;;;;;;;;;;;;;5076276;28;19915;-84
2022/05/17 15:28:46;;;;;;;;;;;;;;;;;;5058470;28;19913;-84
2022/05/17 15:31:12;;;;;;;;;;;;;;;;;;5075655;28;20013;-84
2022/05/17 15:33:38;;;;;;;;;;;;;;;;;;5058206;28;19912;-83
2022/05/17 15:36:05;;;;;;;;;;;;;;;;;;5076384;28;19912;-83
2022/05/17 15:38:31;;;;;;;;;;;;;;;;;;5075948;28;19966;-83
2022/05/17 15:40:59;;;;;;;;;;;;;;;;;;5076230;28;19977;-82
2022/05/17 15:43:28;;;;;;;;;;;;;;;;;;5075887;28;19916;-83
2022/05/17 15:45:56;;;;;;;;;;;;;;;;;;5075970;28;19912;-83
2022/05/17 15:53:50;;;;;;;;;;;;;;;;;;5075384;28;20007;-83
2022/05/17 15:56:16;;;;;;;;;;;;;;;;;;5075555;28;19919;-82
2022/05/17 15:58:43;;;;;;;;;;;;;;;;;;5075444;28;19912;-82
2022/05/17 16:01:20;;;;;;;;;;;;;;;;;;5057713;28;20314;-82
2022/05/17 16:03:47;;;;;;;;;;;;;;;;;;5040915;28;19919;-82
2022/05/17 16:06:12;;;;;;;;;;;;;;;;;;5058447;28;20007;-84
2022/05/17 16:08:38;;;;;;;;;;;;;;;;;;5075398;28;19951;-83
2022/05/17 16:13:51;;;;;;;;;;;;;;;;;;5059852;28;19919;-83
2022/05/17 16:16:16;;;;;;;;;;;;;;;;;;5076418;28;19912;-83
2022/05/17 16:18:42;;;;;;;;;;;;;;;;;;5077126;28;19912;-83
2022/05/17 16:21:08;;;;;;;;;;;;;;;;;;5058505;28;19913;-84
2022/05/17 16:23:33;;;;;;;;;;;;;;;;;;5077220;28;20248;-85
2022/05/17 16:25:59;;;;;;;;;;;;;;;;;;5058344;28;19913;-84
2022/05/17 16:28:24;;;;;;;;;;;;;;;;;;5075363;28;19959;-84
2022/05/17 16:30:49;;;;;;;;;;;;;;;;;;5058362;28;19912;-86
2022/05/17 16:33:15;;;;;;;;;;;;;;;;;;5075949;28;20049;-86
2022/05/17 16:35:41;;;;;;;;;;;;;;;;;;5076244;28;19982;-85
2022/05/17 16:38:07;;;;;;;;;;;;;;;;;;5057948;28;19924;-85
2022/05/17 16:40:32;;;;;;;;;;;;;;;;;;5075734;28;19912;-85
2022/05/17 16:42:57;;;;;;;;;;;;;;;;;;5077855;28;19916;-85
2022/05/17 16:45:23;;;;;;;;;;;;;;;;;;5058107;28;20253;-84
2022/05/17 16:47:48;;;;;;;;;;;;;;;;;;5057442;28;19948;-85
2022/05/17 16:50:16;;;;;;;;;;;;;;;;;;5057202;28;19979;-84
2022/05/17 16:52:42;;;;;;;;;;;;;;;;;;5075282;28;19913;-83
2022/05/17 16:55:07;;;;;;;;;;;;;;;;;;5074627;28;19920;-84
2022/05/17 16:57:33;;;;;;;;;;;;;;;;;;5074779;28;19916;-83
2022/05/17 16:59:58;;;;;;;;;;;;;;;;;;5074835;28;19988;-85
2022/05/17 17:02:30;;;;;;;;;;;;;;;;;;5074928;28;19912;-83
2022/05/17 17:04:56;;;;;;;;;;;;;;;;;;5057038;28;19919;-83
2022/05/17 17:07:23;;;;;;;;;;;;;;;;;;5056771;28;19912;-82
2022/05/17 17:09:49;;;;;;;;;;;;;;;;;;5075040;28;19912;-83
2022/05/17 17:12:14;;;;;;;;;;;;;;;;;;5074505;28;19912;-81
2022/05/17 17:14:39;;;;;;;;;;;;;;;;;;5039986;28;19913;-81
2022/05/17 17:17:05;;;;;;;;;;;;;;;;;;5040235;28;19912;-82
2022/05/17 17:19:32;;;;;;;;;;;;;;;;;;5058330;28;19920;-81
2022/05/17 17:21:57;;;;;;;;;;;;;;;;;;5060673;28;20622;-82
2022/05/17 17:24:22;;;;;;;;;;;;;;;;;;5061093;28;19978;-82
2022/05/17 17:26:48;;;;;;;;;;;;;;;;;;5060266;28;20403;-80
2022/05/17 17:29:14;;;;;;;;;;;;;;;;;;5060587;28;19912;-83
2022/05/17 17:31:39;;;;;;;;;;;;;;;;;;5060493;28;19958;-81
2022/05/17 17:39:40;;;;;;;;;;;;;;;;;;5061860;28;19931;-83
2022/05/17 17:42:05;;;;;;;;;;;;;;;;;;5078276;28;19913;-82
2022/05/17 17:44:31;;;;;;;;;;;;;;;;;;5078250;28;19952;-82
2022/05/17 17:46:59;;;;;;;;;;;;;;;;;;5078187;28;20018;-82
2022/05/17 17:49:25;;;;;;;;;;;;;;;;;;5060486;28;20230;-80
2022/05/17 17:51:50;;;;;;;;;;;;;;;;;;5078149;28;19962;-84
2022/05/17 17:54:16;;;;;;;;;;;;;;;;;;5077725;28;19916;-81